Time;durP1;ratioP1;P1;durP2;ratioP2;P2;SDS_P1;SDS_P2;PMS_P1;PMS_P2;Temp;Humidity;BMP_temperature;BMP_pressure;BME280_temperature;BME280_humidity;BME280_pressure;Samples;Min_cycle;Max_cycle;Signal;HPM_P1;HPM_P2
2023/06/24 00:02:06;;;;;;;6.22;3.42;;;;;;;;;;5043168;28;20052;-69
2023/06/24 00:04:31;;;;;;;6.78;3.60;;;;;;;;;;5044856;28;20140;-69
2023/06/24 00:06:59;;;;;;;6.32;3.75;;;;;;;;;;5045682;28;20033;-69
2023/06/24 00:09:28;;;;;;;6.13;3.55;;;;;;;;;;5037531;28;20044;-69
2023/06/24 00:12:00;;;;;;;8.13;3.75;;;;;;;;;;5079048;28;20048;-69
2023/06/24 00:14:26;;;;;;;5.25;3.67;;;;;;;;;;5045014;28;20742;-69
2023/06/24 00:16:53;;;;;;;5.93;3.75;;;;;;;;;;5046623;28;20455;-69
2023/06/24 00:19:20;;;;;;;5.32;3.30;;;;;;;;;;5047858;28;20183;-69
2023/06/24 00:21:46;;;;;;;6.25;3.60;;;;;;;;;;5049026;28;20028;-69
2023/06/24 00:24:11;;;;;;;4.97;3.15;;;;;;;;;;5053219;28;20037;-69
2023/06/24 00:26:37;;;;;;;8.82;3.95;;;;;;;;;;5058307;28;20348;-69
2023/06/24 00:29:02;;;;;;;4.53;3.33;;;;;;;;;;5047439;28;20136;-69
2023/06/24 00:31:27;;;;;;;5.75;3.25;;;;;;;;;;5046858;28;20044;-69
2023/06/24 00:33:53;;;;;;;5.00;2.97;;;;;;;;;;5045819;28;20404;-69
2023/06/24 00:36:18;;;;;;;5.75;3.35;;;;;;;;;;5046425;28;20041;-69
2023/06/24 00:38:44;;;;;;;6.68;3.42;;;;;;;;;;5046267;28;20506;-69
2023/06/24 00:41:09;;;;;;;6.97;3.30;;;;;;;;;;5046067;28;20056;-69
2023/06/24 00:43:35;;;;;;;6.95;3.20;;;;;;;;;;5046480;28;20116;-69
2023/06/24 00:46:00;;;;;;;6.65;3.22;;;;;;;;;;5046639;28;20111;-69
2023/06/24 00:48:26;;;;;;;4.53;3.03;;;;;;;;;;5045972;28;20041;-69
2023/06/24 00:50:51;;;;;;;4.75;3.25;;;;;;;;;;5046339;28;20033;-69
2023/06/24 00:53:17;;;;;;;4.68;3.15;;;;;;;;;;5045765;28;20051;-69
2023/06/24 00:55:45;;;;;;;5.20;3.35;;;;;;;;;;5033115;28;20033;-69
2023/06/24 00:58:15;;;;;;;8.30;3.30;;;;;;;;;;5046173;28;20504;-69
2023/06/24 01:00:42;;;;;;;5.85;3.35;;;;;;;;;;5046439;28;20560;-69
2023/06/24 01:03:08;;;;;;;4.75;3.13;;;;;;;;;;5045646;28;20526;-69
2023/06/24 01:05:35;;;;;;;6.20;3.28;;;;;;;;;;5045436;28;20049;-69
2023/06/24 01:08:02;;;;;;;5.47;3.28;;;;;;;;;;5046067;28;20041;-69
2023/06/24 01:10:27;;;;;;;5.63;3.47;;;;;;;;;;5045672;28;20534;-69
2023/06/24 01:12:53;;;;;;;6.57;3.22;;;;;;;;;;5045310;28;20037;-69
2023/06/24 01:15:20;;;;;;;5.43;3.00;;;;;;;;;;5045460;28;20091;-69
2023/06/24 01:17:54;;;;;;;4.90;3.10;;;;;;;;;;5045756;28;20044;-69
2023/06/24 01:20:41;;;;;;;5.60;3.10;;;;;;;;;;5045768;28;20033;-69
2023/06/24 01:23:45;;;;;;;5.38;3.35;;;;;;;;;;5033881;28;20064;-69
2023/06/24 01:26:54;;;;;;;6.57;3.45;;;;;;;;;;5042815;28;20044;-69
2023/06/24 01:29:45;;;;;;;6.65;3.35;;;;;;;;;;5045498;28;20064;-69
2023/06/24 01:32:39;;;;;;;6.78;3.80;;;;;;;;;;5045640;28;20037;-69
2023/06/24 01:35:13;;;;;;;5.88;3.40;;;;;;;;;;5019491;28;20076;-69
2023/06/24 01:37:42;;;;;;;5.55;3.30;;;;;;;;;;5045417;28;20036;-69
2023/06/24 01:40:17;;;;;;;4.88;3.38;;;;;;;;;;5038932;28;20022;-68
2023/06/24 01:42:45;;;;;;;6.72;3.08;;;;;;;;;;5032008;28;20113;-69
2023/06/24 01:45:23;;;;;;;4.88;3.22;;;;;;;;;;5041560;28;20048;-69
2023/06/24 01:47:55;;;;;;;7.97;3.28;;;;;;;;;;5047802;28;20127;-69
2023/06/24 01:50:23;;;;;;;7.63;3.47;;;;;;;;;;5054980;28;20754;-69
2023/06/24 01:52:50;;;;;;;6.70;2.92;;;;;;;;;;5049488;28;20541;-69
2023/06/24 01:55:21;;;;;;;6.35;3.10;;;;;;;;;;5045044;28;20089;-69
2023/06/24 01:57:49;;;;;;;6.38;3.60;;;;;;;;;;5041136;28;20041;-69
2023/06/24 02:00:16;;;;;;;6.70;3.25;;;;;;;;;;5039912;28;20036;-69
2023/06/24 02:02:43;;;;;;;5.13;3.25;;;;;;;;;;5045119;28;20037;-69
2023/06/24 02:05:09;;;;;;;11.32;3.83;;;;;;;;;;5044445;28;20069;-69
2023/06/24 02:07:36;;;;;;;8.68;3.30;;;;;;;;;;5044838;28;20602;-69
2023/06/24 02:10:03;;;;;;;5.95;3.40;;;;;;;;;;5044933;28;20016;-69
2023/06/24 02:12:29;;;;;;;5.80;3.20;;;;;;;;;;5044769;28;20174;-69
2023/06/24 02:14:56;;;;;;;7.07;3.33;;;;;;;;;;5044507;28;20056;-69
2023/06/24 02:17:25;;;;;;;7.82;3.63;;;;;;;;;;5044734;28;20128;-69
2023/06/24 02:19:52;;;;;;;8.15;3.80;;;;;;;;;;5044532;28;20025;-69
2023/06/24 02:22:19;;;;;;;7.50;3.78;;;;;;;;;;5042900;28;20119;-69
2023/06/24 02:24:45;;;;;;;5.38;3.10;;;;;;;;;;5044549;28;20020;-69
2023/06/24 02:27:11;;;;;;;7.10;3.45;;;;;;;;;;5042153;28;20033;-68
2023/06/24 02:29:39;;;;;;;5.28;3.35;;;;;;;;;;5044064;28;20079;-69
2023/06/24 02:32:05;;;;;;;7.93;3.40;;;;;;;;;;5044690;28;20037;-69
2023/06/24 02:34:30;;;;;;;5.72;3.25;;;;;;;;;;5042749;28;20024;-69
2023/06/24 02:36:56;;;;;;;6.15;3.35;;;;;;;;;;5044740;28;20075;-69
2023/06/24 02:39:22;;;;;;;5.25;3.42;;;;;;;;;;5044290;28;20410;-69
2023/06/24 02:41:49;;;;;;;5.63;3.58;;;;;;;;;;5042070;28;20052;-69
2023/06/24 02:44:15;;;;;;;5.57;3.38;;;;;;;;;;5044424;28;20515;-68
2023/06/24 02:46:42;;;;;;;4.88;2.95;;;;;;;;;;5044125;28;20071;-69
2023/06/24 02:49:10;;;;;;;6.60;3.25;;;;;;;;;;5044279;28;20541;-69
2023/06/24 02:51:37;;;;;;;8.75;3.55;;;;;;;;;;5043002;28;20488;-69
2023/06/24 02:54:02;;;;;;;5.85;3.50;;;;;;;;;;5042723;28;20041;-69
2023/06/24 02:56:28;;;;;;;7.13;3.50;;;;;;;;;;5043595;28;20082;-69
2023/06/24 02:58:54;;;;;;;6.30;3.15;;;;;;;;;;5044300;28;20029;-69
2023/06/24 03:01:24;;;;;;;5.50;3.25;;;;;;;;;;5043898;28;20032;-69
2023/06/24 03:03:54;;;;;;;8.63;3.90;;;;;;;;;;5042524;28;20025;-69
2023/06/24 03:06:21;;;;;;;5.50;3.42;;;;;;;;;;5043900;28;20048;-69
2023/06/24 03:08:47;;;;;;;7.43;3.50;;;;;;;;;;5044056;28;20029;-68
2023/06/24 03:11:16;;;;;;;5.93;3.67;;;;;;;;;;5038788;28;20759;-69
2023/06/24 03:13:42;;;;;;;5.63;3.42;;;;;;;;;;5044221;28;20029;-69
2023/06/24 03:16:12;;;;;;;6.63;3.83;;;;;;;;;;5054971;28;20028;-69
2023/06/24 03:18:43;;;;;;;8.75;3.92;;;;;;;;;;5046567;28;20445;-69
2023/06/24 03:21:10;;;;;;;13.13;3.95;;;;;;;;;;5044631;28;20040;-69
2023/06/24 03:23:35;;;;;;;5.40;3.72;;;;;;;;;;5042545;28;20032;-69
2023/06/24 03:26:02;;;;;;;6.80;3.70;;;;;;;;;;5043609;28;20033;-69
2023/06/24 03:28:30;;;;;;;7.32;3.47;;;;;;;;;;5043718;28;20533;-69
2023/06/24 03:30:55;;;;;;;6.03;3.70;;;;;;;;;;5044086;28;20077;-69
2023/06/24 03:33:20;;;;;;;5.82;3.55;;;;;;;;;;5043562;28;20029;-69
2023/06/24 03:35:45;;;;;;;7.55;4.10;;;;;;;;;;5041628;28;20097;-69
2023/06/24 03:38:11;;;;;;;6.78;3.53;;;;;;;;;;5043269;28;20036;-68
2023/06/24 03:40:37;;;;;;;5.93;3.40;;;;;;;;;;5045916;28;20037;-69
2023/06/24 03:43:02;;;;;;;5.47;3.55;;;;;;;;;;5047973;28;20434;-69
2023/06/24 03:45:28;;;;;;;8.88;3.92;;;;;;;;;;5048122;28;20394;-69
2023/06/24 03:47:53;;;;;;;6.45;3.35;;;;;;;;;;5047506;28;20037;-69
2023/06/24 03:50:18;;;;;;;7.55;3.88;;;;;;;;;;5047232;28;20117;-69
2023/06/24 03:52:44;;;;;;;6.38;3.80;;;;;;;;;;5045657;28;20039;-69
2023/06/24 03:55:10;;;;;;;8.35;4.25;;;;;;;;;;5034362;28;20113;-69
2023/06/24 03:57:36;;;;;;;8.68;3.78;;;;;;;;;;5047158;28;20024;-68
2023/06/24 04:00:07;;;;;;;6.63;3.88;;;;;;;;;;5047419;28;20029;-69
2023/06/24 04:02:33;;;;;;;6.10;3.63;;;;;;;;;;5034220;28;20029;-69
2023/06/24 04:04:58;;;;;;;7.50;3.45;;;;;;;;;;5046450;28;20094;-69
2023/06/24 04:07:32;;;;;;;8.40;3.97;;;;;;;;;;5047032;28;20033;-69
2023/06/24 04:09:58;;;;;;;8.63;3.83;;;;;;;;;;5046226;28;20120;-69
2023/06/24 04:12:24;;;;;;;7.32;4.43;;;;;;;;;;5046630;28;20112;-69
2023/06/24 04:14:49;;;;;;;7.72;4.00;;;;;;;;;;5047254;28;20037;-69
2023/06/24 04:17:15;;;;;;;8.00;3.83;;;;;;;;;;5046903;28;20048;-68
2023/06/24 04:19:40;;;;;;;6.85;4.07;;;;;;;;;;5045125;28;20519;-69
2023/06/24 04:22:06;;;;;;;7.15;4.30;;;;;;;;;;5047209;28;20028;-69
2023/06/24 04:24:31;;;;;;;9.55;4.45;;;;;;;;;;5046649;28;20617;-69
2023/06/24 04:26:57;;;;;;;8.95;4.35;;;;;;;;;;5047199;28;20973;-69
2023/06/24 04:29:23;;;;;;;6.78;4.38;;;;;;;;;;5046914;28;20036;-68
2023/06/24 04:31:48;;;;;;;8.15;4.82;;;;;;;;;;5045073;28;20029;-69
2023/06/24 04:34:13;;;;;;;11.90;4.97;;;;;;;;;;5046924;28;20041;-69
2023/06/24 04:36:39;;;;;;;10.40;5.22;;;;;;;;;;5048511;28;20057;-69
2023/06/24 04:39:04;;;;;;;12.57;5.10;;;;;;;;;;5052451;28;20083;-68
2023/06/24 04:41:31;;;;;;;12.30;5.00;;;;;;;;;;5057702;28;20036;-69
2023/06/24 04:43:56;;;;;;;9.73;5.10;;;;;;;;;;5046221;28;20033;-69
2023/06/24 04:46:21;;;;;;;9.45;5.63;;;;;;;;;;5046941;28;20044;-68
2023/06/24 04:48:47;;;;;;;10.13;4.82;;;;;;;;;;5046534;28;20530;-68
2023/06/24 04:51:12;;;;;;;10.15;4.93;;;;;;;;;;5045139;28;20036;-68
2023/06/24 04:53:37;;;;;;;10.82;5.47;;;;;;;;;;5046357;28;20037;-69
2023/06/24 04:56:03;;;;;;;13.35;5.75;;;;;;;;;;5046540;28;20079;-68
2023/06/24 04:58:28;;;;;;;9.05;5.25;;;;;;;;;;5044034;28;20029;-68
2023/06/24 05:00:53;;;;;;;11.57;5.55;;;;;;;;;;5047119;28;20561;-69
2023/06/24 05:03:19;;;;;;;10.32;5.35;;;;;;;;;;5045932;28;20577;-69
2023/06/24 05:05:44;;;;;;;10.60;5.70;;;;;;;;;;5045702;28;20033;-69
2023/06/24 05:08:09;;;;;;;9.75;5.65;;;;;;;;;;5046006;28;20044;-69
2023/06/24 05:10:35;;;;;;;13.30;6.03;;;;;;;;;;5039246;28;20030;-69
2023/06/24 05:13:00;;;;;;;11.90;5.93;;;;;;;;;;5045999;28;20022;-69
2023/06/24 05:15:26;;;;;;;10.52;5.35;;;;;;;;;;5045677;28;20036;-69
2023/06/24 05:17:51;;;;;;;11.27;5.63;;;;;;;;;;5045601;28;20071;-69
2023/06/24 05:20:17;;;;;;;13.93;5.68;;;;;;;;;;5045605;28;20045;-69
2023/06/24 05:22:43;;;;;;;13.63;6.05;;;;;;;;;;5045412;28;20028;-69
2023/06/24 05:25:09;;;;;;;10.10;5.47;;;;;;;;;;5044484;28;20102;-69
2023/06/24 05:27:34;;;;;;;10.25;5.38;;;;;;;;;;5044408;28;20402;-69
2023/06/24 05:29:59;;;;;;;8.75;5.25;;;;;;;;;;5045378;28;20037;-68
2023/06/24 05:32:25;;;;;;;9.25;5.32;;;;;;;;;;5045418;28;20032;-69
2023/06/24 05:34:50;;;;;;;12.32;4.88;;;;;;;;;;5043915;28;20029;-68
2023/06/24 05:37:16;;;;;;;9.27;4.95;;;;;;;;;;5045170;28;20025;-69
2023/06/24 05:39:41;;;;;;;12.32;5.20;;;;;;;;;;5045988;28;20702;-69
2023/06/24 05:42:06;;;;;;;11.93;5.35;;;;;;;;;;5045197;28;20044;-69
2023/06/24 05:44:32;;;;;;;12.25;6.00;;;;;;;;;;5045661;28;20025;-69
2023/06/24 05:46:57;;;;;;;7.63;4.80;;;;;;;;;;5044560;28;20047;-69
2023/06/24 05:49:22;;;;;;;10.18;5.30;;;;;;;;;;5044582;28;20098;-69
2023/06/24 05:51:48;;;;;;;11.02;5.70;;;;;;;;;;5045615;28;20049;-69
2023/06/24 05:54:13;;;;;;;10.38;5.07;;;;;;;;;;5043671;28;20037;-69
2023/06/24 05:56:39;;;;;;;12.55;5.18;;;;;;;;;;5045577;28;20029;-69
2023/06/24 05:59:04;;;;;;;9.52;5.50;;;;;;;;;;5044595;28;20485;-69
2023/06/24 06:01:30;;;;;;;9.18;4.90;;;;;;;;;;5046840;28;20043;-69
2023/06/24 06:03:55;;;;;;;8.85;5.43;;;;;;;;;;5051583;28;20044;-69
2023/06/24 06:06:20;;;;;;;9.23;4.88;;;;;;;;;;5055218;28;20049;-68
2023/06/24 06:08:47;;;;;;;7.68;4.47;;;;;;;;;;5046567;28;20068;-68
2023/06/24 06:11:12;;;;;;;7.90;4.75;;;;;;;;;;5043522;28;20033;-68
2023/06/24 06:13:38;;;;;;;8.40;4.45;;;;;;;;;;5031007;28;20039;-68
2023/06/24 06:16:04;;;;;;;8.45;4.63;;;;;;;;;;5043171;28;20033;-69
2023/06/24 06:18:29;;;;;;;9.38;5.03;;;;;;;;;;5044102;28;20025;-68
2023/06/24 06:20:54;;;;;;;10.75;4.20;;;;;;;;;;5044402;28;20128;-68
2023/06/24 06:23:20;;;;;;;10.00;4.72;;;;;;;;;;5042892;28;20114;-68
2023/06/24 06:25:45;;;;;;;9.18;4.63;;;;;;;;;;5043689;28;20695;-68
2023/06/24 06:28:11;;;;;;;11.57;5.30;;;;;;;;;;5043846;28;20025;-68
2023/06/24 06:30:36;;;;;;;13.15;5.00;;;;;;;;;;5043367;28;20104;-68
2023/06/24 06:33:02;;;;;;;12.32;5.07;;;;;;;;;;5042707;28;20474;-68
2023/06/24 06:35:27;;;;;;;11.02;4.20;;;;;;;;;;5044638;28;20589;-68
2023/06/24 06:37:54;;;;;;;8.25;4.68;;;;;;;;;;5034508;28;20040;-68
2023/06/24 06:40:20;;;;;;;7.07;4.18;;;;;;;;;;5042155;28;20778;-68
2023/06/24 06:42:45;;;;;;;6.55;4.38;;;;;;;;;;5044238;28;20116;-68
2023/06/24 06:45:11;;;;;;;6.32;4.15;;;;;;;;;;5043135;28;20135;-68
2023/06/24 06:47:36;;;;;;;10.00;4.68;;;;;;;;;;5045844;28;20029;-67
2023/06/24 06:50:01;;;;;;;8.75;4.22;;;;;;;;;;5044444;28;20061;-68
2023/06/24 06:52:29;;;;;;;9.70;4.63;;;;;;;;;;5045217;28;20044;-69
2023/06/24 06:54:55;;;;;;;8.82;4.18;;;;;;;;;;5043198;28;20033;-68
2023/06/24 06:57:21;;;;;;;7.55;4.05;;;;;;;;;;5043876;28;20039;-68
2023/06/24 06:59:46;;;;;;;5.45;3.50;;;;;;;;;;5040335;28;20056;-68
2023/06/24 07:02:12;;;;;;;7.57;3.33;;;;;;;;;;5045350;28;20410;-68
2023/06/24 07:04:37;;;;;;;7.53;4.13;;;;;;;;;;5043969;28;20673;-68
2023/06/24 07:07:02;;;;;;;6.13;3.53;;;;;;;;;;5077002;28;20045;-68
2023/06/24 07:09:28;;;;;;;5.30;3.40;;;;;;;;;;5045045;28;20029;-68
2023/06/24 07:11:53;;;;;;;6.78;3.90;;;;;;;;;;5038017;28;20024;-68
2023/06/24 07:14:19;;;;;;;6.40;3.58;;;;;;;;;;5043907;28;20086;-68
2023/06/24 07:16:44;;;;;;;8.27;3.85;;;;;;;;;;5043665;28;20033;-68
2023/06/24 07:19:09;;;;;;;7.43;4.00;;;;;;;;;;5045085;28;20037;-68
2023/06/24 07:21:35;;;;;;;5.88;3.50;;;;;;;;;;5045438;28;20044;-68
2023/06/24 07:24:00;;;;;;;6.25;3.58;;;;;;;;;;5042589;28;20115;-68
2023/06/24 07:26:27;;;;;;;5.50;3.03;;;;;;;;;;5046689;28;20060;-68
2023/06/24 07:28:53;;;;;;;8.30;3.70;;;;;;;;;;5045969;28;20033;-68
2023/06/24 07:31:19;;;;;;;5.53;3.58;;;;;;;;;;5044608;28;20528;-68
2023/06/24 07:33:44;;;;;;;8.82;3.78;;;;;;;;;;5041258;28;20045;-68
2023/06/24 07:36:09;;;;;;;7.25;3.33;;;;;;;;;;5042925;28;20451;-68
2023/06/24 07:38:35;;;;;;;8.73;3.38;;;;;;;;;;5044653;28;20028;-68
2023/06/24 07:41:00;;;;;;;5.78;3.13;;;;;;;;;;5043512;28;20037;-68
2023/06/24 07:43:26;;;;;;;6.13;3.63;;;;;;;;;;5044264;28;20832;-68
2023/06/24 07:45:51;;;;;;;7.18;3.55;;;;;;;;;;5044671;28;20033;-68
2023/06/24 07:48:16;;;;;;;6.80;3.55;;;;;;;;;;5044089;28;20041;-68
2023/06/24 07:50:42;;;;;;;6.50;3.50;;;;;;;;;;5031586;28;20067;-68
2023/06/24 07:53:07;;;;;;;8.27;3.55;;;;;;;;;;5044392;28;20102;-68
2023/06/24 07:55:32;;;;;;;5.93;3.80;;;;;;;;;;5044120;28;20511;-68
2023/06/24 07:58:02;;;;;;;5.10;3.40;;;;;;;;;;5038893;28;20107;-68
2023/06/24 08:00:27;;;;;;;6.55;4.05;;;;;;;;;;5044615;28;20119;-68
2023/06/24 08:02:55;;;;;;;5.90;3.50;;;;;;;;;;5042240;28;20128;-68
2023/06/24 08:05:20;;;;;;;6.65;3.50;;;;;;;;;;5033572;28;20046;-68
2023/06/24 08:07:46;;;;;;;5.28;3.10;;;;;;;;;;5026943;28;20053;-68
2023/06/24 08:10:11;;;;;;;6.47;3.95;;;;;;;;;;5026451;28;20040;-68
2023/06/24 08:12:37;;;;;;;6.97;3.45;;;;;;;;;;5024943;28;20465;-68
2023/06/24 08:15:02;;;;;;;7.13;3.75;;;;;;;;;;5042254;28;20175;-68
2023/06/24 08:17:28;;;;;;;5.80;3.60;;;;;;;;;;5044237;28;20025;-68
2023/06/24 08:19:53;;;;;;;5.97;3.40;;;;;;;;;;5042972;28;20041;-68
2023/06/24 08:22:19;;;;;;;6.93;3.30;;;;;;;;;;5041926;28;20048;-68
2023/06/24 08:24:44;;;;;;;6.40;3.28;;;;;;;;;;5043261;28;20064;-68
2023/06/24 08:27:09;;;;;;;5.10;3.08;;;;;;;;;;5047230;28;20167;-68
2023/06/24 08:29:35;;;;;;;5.75;3.00;;;;;;;;;;5046754;28;20457;-68
2023/06/24 08:32:00;;;;;;;5.82;3.85;;;;;;;;;;5048034;28;20510;-68
2023/06/24 08:34:25;;;;;;;5.82;3.13;;;;;;;;;;5044476;28;20041;-69
2023/06/24 08:36:51;;;;;;;4.90;3.17;;;;;;;;;;5047850;28;20465;-69
2023/06/24 08:39:16;;;;;;;5.65;2.67;;;;;;;;;;5048627;28;20193;-68
2023/06/24 08:41:41;;;;;;;3.83;2.50;;;;;;;;;;5047843;28;20456;-69
2023/06/24 08:44:07;;;;;;;6.82;2.90;;;;;;;;;;5050526;28;20560;-70
2023/06/24 08:46:35;;;;;;;4.28;2.70;;;;;;;;;;5048593;28;20068;-69
2023/06/24 08:49:16;;;;;;;5.05;2.55;;;;;;;;;;5047880;28;20564;-70
2023/06/24 08:51:44;;;;;;;3.97;2.45;;;;;;;;;;5042209;28;20122;-69
2023/06/24 08:54:10;;;;;;;5.13;2.92;;;;;;;;;;5048653;28;20122;-70
2023/06/24 08:56:38;;;;;;;4.13;2.65;;;;;;;;;;5057488;28;20052;-69
2023/06/24 08:59:05;;;;;;;4.93;3.50;;;;;;;;;;5047572;28;20048;-70
2023/06/24 09:01:31;;;;;;;4.22;2.65;;;;;;;;;;5047579;28;20041;-70
2023/06/24 09:03:56;;;;;;;3.67;2.38;;;;;;;;;;5046262;28;20406;-69
2023/06/24 09:06:22;;;;;;;3.67;2.30;;;;;;;;;;5046792;28;20048;-69
2023/06/24 09:08:57;;;;;;;6.10;3.13;;;;;;;;;;5046718;28;20040;-69
2023/06/24 09:11:23;;;;;;;4.70;2.90;;;;;;;;;;5040186;28;20025;-69
2023/06/24 09:13:54;;;;;;;4.30;2.72;;;;;;;;;;5046901;28;20102;-69
2023/06/24 09:16:20;;;;;;;3.58;2.42;;;;;;;;;;5046354;28;20116;-69
2023/06/24 09:18:49;;;;;;;3.70;2.60;;;;;;;;;;5046308;28;20120;-70
2023/06/24 09:21:35;;;;;;;6.00;3.00;;;;;;;;;;5046934;28;20083;-70
2023/06/24 09:24:00;;;;;;;7.50;2.92;;;;;;;;;;5046039;28;20041;-69
2023/06/24 09:26:29;;;;;;;3.67;2.67;;;;;;;;;;5046872;28;20055;-69
2023/06/24 09:28:54;;;;;;;4.65;2.60;;;;;;;;;;5046551;28;20033;-70
2023/06/24 09:31:20;;;;;;;12.90;2.95;;;;;;;;;;5044755;28;20575;-69
2023/06/24 09:33:46;;;;;;;4.18;2.72;;;;;;;;;;5045415;28;20102;-69
2023/06/24 09:36:16;;;;;;;6.07;2.78;;;;;;;;;;5045529;28;20029;-70
2023/06/24 09:38:44;;;;;;;5.45;3.40;;;;;;;;;;5043794;28;20035;-70
2023/06/24 09:41:10;;;;;;;5.28;3.00;;;;;;;;;;5040430;28;20068;-70
2023/06/24 09:43:36;;;;;;;3.85;2.67;;;;;;;;;;5036015;28;20607;-70
2023/06/24 09:46:03;;;;;;;3.72;2.60;;;;;;;;;;5038667;28;20041;-71
2023/06/24 09:48:28;;;;;;;3.28;2.20;;;;;;;;;;5035930;28;20056;-71
2023/06/24 09:50:59;;;;;;;4.82;3.25;;;;;;;;;;5035420;28;20118;-71
2023/06/24 09:53:25;;;;;;;3.25;2.30;;;;;;;;;;5038889;28;20036;-71
2023/06/24 09:55:50;;;;;;;3.70;2.65;;;;;;;;;;5033213;28;20183;-70
2023/06/24 09:58:18;;;;;;;8.10;2.58;;;;;;;;;;5045835;28;20570;-69
2023/06/24 10:00:43;;;;;;;6.10;2.58;;;;;;;;;;5045701;28;20084;-71
2023/06/24 10:03:09;;;;;;;2.63;2.22;;;;;;;;;;5045994;28;20407;-71
2023/06/24 10:05:35;;;;;;;3.90;2.90;;;;;;;;;;5046080;28;20098;-71
2023/06/24 10:08:03;;;;;;;3.78;2.20;;;;;;;;;;5043975;28;20037;-70
2023/06/24 10:10:28;;;;;;;3.55;2.08;;;;;;;;;;5040661;28;20049;-71
2023/06/24 10:12:53;;;;;;;5.05;2.60;;;;;;;;;;5039749;28;20044;-71
2023/06/24 10:15:19;;;;;;;3.65;2.30;;;;;;;;;;5042128;28;20116;-70
2023/06/24 10:17:45;;;;;;;5.53;2.75;;;;;;;;;;5044192;28;20124;-70
2023/06/24 10:20:11;;;;;;;7.07;3.65;;;;;;;;;;5038590;28;20053;-71
2023/06/24 10:22:36;;;;;;;3.35;2.53;;;;;;;;;;5033416;28;20034;-71
2023/06/24 10:25:05;;;;;;;3.45;2.60;;;;;;;;;;5043036;28;20048;-71
2023/06/24 10:27:38;;;;;;;2.58;2.20;;;;;;;;;;5025508;28;20730;-71
2023/06/24 10:30:04;;;;;;;3.60;2.00;;;;;;;;;;5044543;28;20045;-71
2023/06/24 10:32:42;;;;;;;3.00;2.10;;;;;;;;;;5045568;28;20150;-71
2023/06/24 10:35:07;;;;;;;2.55;2.10;;;;;;;;;;5043430;28;20105;-71
2023/06/24 10:37:33;;;;;;;3.15;2.10;;;;;;;;;;5043893;28;20048;-71
2023/06/24 10:40:00;;;;;;;2.50;1.90;;;;;;;;;;5045328;28;20041;-71
2023/06/24 10:42:46;;;;;;;3.63;2.30;;;;;;;;;;5043880;28;20033;-71
2023/06/24 10:45:12;;;;;;;5.80;2.72;;;;;;;;;;5044998;28;20040;-70
2023/06/24 10:47:39;;;;;;;4.63;2.47;;;;;;;;;;5045083;28;20017;-70
2023/06/24 10:50:06;;;;;;;3.28;2.25;;;;;;;;;;5044997;28;20792;-70
2023/06/24 10:52:31;;;;;;;3.58;2.15;;;;;;;;;;5044652;28;20044;-70
2023/06/24 10:54:58;;;;;;;4.90;1.95;;;;;;;;;;5044990;28;20033;-70
2023/06/24 10:57:25;;;;;;;3.33;2.40;;;;;;;;;;5043166;28;20059;-70
2023/06/24 10:59:52;;;;;;;3.17;2.30;;;;;;;;;;5040952;28;20028;-71
2023/06/24 11:02:19;;;;;;;3.30;2.08;;;;;;;;;;5044880;28;20020;-70
2023/06/24 11:04:56;;;;;;;4.38;2.38;;;;;;;;;;5044335;28;20576;-71
2023/06/24 11:07:23;;;;;;;3.70;2.22;;;;;;;;;;5028932;28;20135;-71
2023/06/24 11:09:55;;;;;;;2.92;2.20;;;;;;;;;;5043732;28;20518;-71
2023/06/24 11:12:26;;;;;;;3.47;2.20;;;;;;;;;;5038200;28;20581;-70
2023/06/24 11:14:51;;;;;;;4.70;2.00;;;;;;;;;;5038934;28;20410;-71
2023/06/24 11:17:20;;;;;;;3.65;2.40;;;;;;;;;;5045070;28;20088;-70
2023/06/24 11:19:46;;;;;;;3.55;2.05;;;;;;;;;;5041329;28;20044;-70
2023/06/24 11:22:11;;;;;;;3.70;2.65;;;;;;;;;;5042976;28;20040;-70
2023/06/24 11:24:39;;;;;;;3.33;2.20;;;;;;;;;;5043554;28;20037;-71
2023/06/24 11:27:05;;;;;;;4.35;2.60;;;;;;;;;;5036092;28;20041;-70
2023/06/24 11:29:31;;;;;;;3.38;2.22;;;;;;;;;;5044990;28;20031;-70
2023/06/24 11:31:57;;;;;;;4.05;2.45;;;;;;;;;;5044710;28;20041;-70
2023/06/24 11:34:22;;;;;;;2.67;2.22;;;;;;;;;;5044659;28;20170;-70
2023/06/24 11:36:48;;;;;;;3.50;2.55;;;;;;;;;;5045305;28;20037;-68
2023/06/24 11:39:27;;;;;;;3.15;2.33;;;;;;;;;;5044481;28;20033;-68
2023/06/24 11:41:53;;;;;;;3.00;2.22;;;;;;;;;;5045085;28;20036;-68
2023/06/24 11:44:24;;;;;;;3.45;2.17;;;;;;;;;;5048427;28;20036;-68
2023/06/24 11:46:49;;;;;;;2.78;2.00;;;;;;;;;;5053288;28;20426;-69
2023/06/24 11:49:15;;;;;;;3.17;2.40;;;;;;;;;;5052806;28;20036;-71
2023/06/24 11:51:48;;;;;;;3.47;2.38;;;;;;;;;;5045697;28;20418;-71
2023/06/24 11:54:16;;;;;;;4.60;2.33;;;;;;;;;;5044625;28;20033;-71
2023/06/24 11:56:42;;;;;;;3.47;2.33;;;;;;;;;;5043277;28;20032;-70
2023/06/24 11:59:18;;;;;;;3.78;2.53;;;;;;;;;;5039790;28;20726;-71
2023/06/24 12:01:44;;;;;;;3.42;2.38;;;;;;;;;;5047197;28;20167;-71
2023/06/24 12:04:11;;;;;;;2.63;2.05;;;;;;;;;;5047771;28;20075;-71
2023/06/24 12:06:37;;;;;;;3.78;2.30;;;;;;;;;;5048162;28;20112;-70
2023/06/24 12:09:02;;;;;;;4.03;2.45;;;;;;;;;;5048341;28;20159;-71
2023/06/24 12:11:28;;;;;;;3.70;2.30;;;;;;;;;;5048123;28;20029;-69
2023/06/24 12:13:53;;;;;;;3.67;2.53;;;;;;;;;;5048398;28;20041;-70
2023/06/24 12:16:18;;;;;;;5.13;2.45;;;;;;;;;;5046102;28;20037;-71
2023/06/24 12:18:44;;;;;;;4.45;2.50;;;;;;;;;;5029812;28;20033;-71
2023/06/24 12:21:10;;;;;;;3.15;2.50;;;;;;;;;;5047247;28;20041;-71
2023/06/24 12:23:35;;;;;;;3.78;2.20;;;;;;;;;;5047325;28;20124;-71
2023/06/24 12:26:01;;;;;;;2.92;2.35;;;;;;;;;;5048199;28;20029;-71
2023/06/24 12:28:26;;;;;;;3.80;2.53;;;;;;;;;;5048196;28;20445;-71
2023/06/24 12:30:51;;;;;;;3.90;2.45;;;;;;;;;;5047586;28;20041;-70
2023/06/24 12:33:19;;;;;;;3.42;2.22;;;;;;;;;;5047843;28;20449;-70
2023/06/24 12:35:45;;;;;;;2.97;2.10;;;;;;;;;;5047489;28;20025;-71
2023/06/24 12:38:10;;;;;;;3.30;2.17;;;;;;;;;;5037682;28;20029;-70
2023/06/24 12:40:36;;;;;;;2.95;2.13;;;;;;;;;;5038598;28;20826;-70
2023/06/24 12:43:01;;;;;;;2.60;2.28;;;;;;;;;;5038614;28;20044;-70
2023/06/24 12:45:26;;;;;;;2.42;1.63;;;;;;;;;;5038034;28;20029;-70
2023/06/24 12:47:52;;;;;;;3.65;1.90;;;;;;;;;;5036308;28;20068;-71
2023/06/24 12:50:17;;;;;;;2.42;1.95;;;;;;;;;;5044433;28;20529;-70
2023/06/24 12:52:43;;;;;;;3.33;2.13;;;;;;;;;;5047285;28;20114;-70
2023/06/24 12:55:08;;;;;;;2.53;2.10;;;;;;;;;;5046913;28;20048;-70
2023/06/24 12:57:34;;;;;;;2.72;2.20;;;;;;;;;;5047552;28;20032;-70
2023/06/24 12:59:59;;;;;;;3.47;1.90;;;;;;;;;;5047214;28;20502;-71
2023/06/24 13:02:25;;;;;;;2.20;1.80;;;;;;;;;;5037386;28;20112;-71
2023/06/24 13:04:50;;;;;;;2.78;2.28;;;;;;;;;;5032130;28;20144;-71
2023/06/24 13:07:15;;;;;;;3.22;2.40;;;;;;;;;;5072961;28;20041;-70
2023/06/24 13:09:41;;;;;;;4.28;2.35;;;;;;;;;;5032904;28;20040;-70
2023/06/24 13:12:08;;;;;;;3.15;2.40;;;;;;;;;;5042963;28;20037;-70
2023/06/24 13:14:33;;;;;;;3.05;2.40;;;;;;;;;;5059110;28;20028;-71
2023/06/24 13:16:58;;;;;;;4.10;2.22;;;;;;;;;;5046985;28;20041;-70
2023/06/24 13:19:24;;;;;;;3.25;2.30;;;;;;;;;;5046660;28;20033;-70
2023/06/24 13:21:49;;;;;;;3.10;2.13;;;;;;;;;;5044917;28;20033;-69
2023/06/24 13:24:15;;;;;;;4.63;2.28;;;;;;;;;;5046419;28;20490;-71
2023/06/24 13:26:41;;;;;;;3.78;2.00;;;;;;;;;;5046690;28;20507;-71
2023/06/24 13:29:07;;;;;;;3.25;2.00;;;;;;;;;;5043382;28;20090;-71
2023/06/24 13:31:33;;;;;;;2.78;1.85;;;;;;;;;;5041486;28;20037;-71
2023/06/24 13:33:58;;;;;;;2.65;1.90;;;;;;;;;;5039036;28;20549;-71
2023/06/24 13:36:35;;;;;;;2.47;1.98;;;;;;;;;;5028776;28;20033;-71
2023/06/24 13:39:02;;;;;;;2.50;2.30;;;;;;;;;;5044779;28;20029;-71
2023/06/24 13:41:30;;;;;;;6.80;6.10;;;;;;;;;;5028715;28;20072;-71
2023/06/24 13:43:56;;;;;;;3.42;2.35;;;;;;;;;;5075046;28;20041;-71
2023/06/24 13:46:22;;;;;;;2.95;1.92;;;;;;;;;;5077907;28;20033;-71
2023/06/24 13:48:49;;;;;;;4.05;2.10;;;;;;;;;;5040780;28;20422;-71
2023/06/24 13:51:15;;;;;;;6.47;2.25;;;;;;;;;;5039477;28;20095;-69
2023/06/24 13:53:40;;;;;;;2.45;2.00;;;;;;;;;;5039775;28;20453;-69
2023/06/24 13:56:05;;;;;;;2.85;2.10;;;;;;;;;;5039864;28;20129;-70
2023/06/24 13:58:31;;;;;;;3.45;2.30;;;;;;;;;;5036425;28;20058;-71
2023/06/24 14:00:56;;;;;;;2.33;2.13;;;;;;;;;;5046182;28;20041;-69
2023/06/24 14:03:21;;;;;;;2.95;2.20;;;;;;;;;;5045708;28;20047;-69
2023/06/24 14:05:47;;;;;;;8.10;3.50;;;;;;;;;;5046100;28;20092;-69
2023/06/24 14:08:12;;;;;;;3.25;2.00;;;;;;;;;;5046971;28;20120;-69
2023/06/24 14:10:38;;;;;;;3.20;2.15;;;;;;;;;;5046111;28;20538;-69
2023/06/24 14:13:05;;;;;;;2.00;1.80;;;;;;;;;;5040842;28;20120;-69
2023/06/24 14:15:30;;;;;;;5.15;2.40;;;;;;;;;;5046441;28;20033;-69
2023/06/24 14:17:55;;;;;;;3.58;2.25;;;;;;;;;;5046480;28;20071;-69
2023/06/24 14:20:21;;;;;;;2.40;2.00;;;;;;;;;;5046810;28;20116;-69
2023/06/24 14:22:46;;;;;;;3.90;2.22;;;;;;;;;;5045230;28;20080;-70
2023/06/24 14:25:12;;;;;;;2.65;2.00;;;;;;;;;;5046710;28;20041;-70
2023/06/24 14:27:37;;;;;;;2.40;2.00;;;;;;;;;;5045891;28;20040;-70
2023/06/24 14:30:04;;;;;;;2.20;1.80;;;;;;;;;;5037094;28;20053;-69
2023/06/24 14:32:29;;;;;;;2.35;1.90;;;;;;;;;;5036922;28;20561;-68
2023/06/24 14:34:54;;;;;;;3.22;2.20;;;;;;;;;;5033841;28;20040;-68
2023/06/24 14:37:20;;;;;;;2.75;2.40;;;;;;;;;;5033184;28;20037;-69
2023/06/24 14:39:45;;;;;;;3.17;2.25;;;;;;;;;;5044835;28;20044;-69